Time;durP1;ratioP1;P1;durP2;ratioP2;P2;SDS_P1;SDS_P2;PMS_P1;PMS_P2;Temp;Humidity;BMP_temperature;BMP_pressure;BME280_temperature;BME280_humidity;BME280_pressure;Samples;Min_cycle;Max_cycle;Signal;HPM_P1;HPM_P2
2022/09/06 00:00:06;;;;;;;9.68;8.68;;;;;;;;;;5006390;28;20029;-69
2022/09/06 00:02:38;;;;;;;9.43;8.60;;;;;;;;;;5003879;28;20574;-70
2022/09/06 00:05:05;;;;;;;9.52;8.73;;;;;;;;;;5008306;28;20478;-70
2022/09/06 00:07:31;;;;;;;9.60;8.88;;;;;;;;;;5008054;28;20074;-71
2022/09/06 00:09:56;;;;;;;9.82;9.00;;;;;;;;;;5004056;28;20117;-71
2022/09/06 00:12:23;;;;;;;10.85;9.80;;;;;;;;;;5006673;28;20128;-71
2022/09/06 00:14:49;;;;;;;11.35;10.30;;;;;;;;;;4999868;28;20037;-71
2022/09/06 00:17:15;;;;;;;10.80;9.70;;;;;;;;;;5004665;28;20091;-71
2022/09/06 00:19:41;;;;;;;13.13;10.52;;;;;;;;;;5007976;28;20038;-71
2022/09/06 00:22:06;;;;;;;11.93;9.82;;;;;;;;;;5007163;28;20374;-70
2022/09/06 00:24:32;;;;;;;11.55;9.82;;;;;;;;;;5005126;28;20125;-70
2022/09/06 00:26:58;;;;;;;9.93;9.02;;;;;;;;;;5009312;28;20052;-69
2022/09/06 00:29:24;;;;;;;9.43;8.70;;;;;;;;;;5006876;28;20042;-70
2022/09/06 00:31:49;;;;;;;9.77;9.05;;;;;;;;;;5007867;28;20072;-71
2022/09/06 00:34:15;;;;;;;10.10;8.93;;;;;;;;;;5006175;28;20481;-71
2022/09/06 00:36:41;;;;;;;10.18;9.38;;;;;;;;;;5007412;28;20038;-72
2022/09/06 00:39:06;;;;;;;9.77;8.98;;;;;;;;;;5006475;28;20029;-71
2022/09/06 00:41:32;;;;;;;9.48;8.68;;;;;;;;;;5003341;28;20478;-73
2022/09/06 00:43:57;;;;;;;10.18;9.23;;;;;;;;;;5007778;28;20121;-69
2022/09/06 00:46:27;;;;;;;9.93;9.13;;;;;;;;;;5009151;28;20268;-70
2022/09/06 00:49:12;;;;;;;9.70;9.00;;;;;;;;;;5004012;28;20042;-70
2022/09/06 00:51:38;;;;;;;10.57;9.57;;;;;;;;;;5005928;28;20040;-71
2022/09/06 00:54:06;;;;;;;13.13;9.27;;;;;;;;;;5006890;28;20402;-71
2022/09/06 00:56:39;;;;;;;10.50;9.48;;;;;;;;;;5005729;28;20121;-71
2022/09/06 00:59:06;;;;;;;11.20;9.73;;;;;;;;;;5002180;28;20034;-71
2022/09/06 01:01:31;;;;;;;10.82;9.57;;;;;;;;;;5006709;28;20517;-73
2022/09/06 01:03:57;;;;;;;9.88;8.98;;;;;;;;;;5009740;28;20045;-71
2022/09/06 01:06:28;;;;;;;10.05;9.13;;;;;;;;;;5013413;28;20047;-71
2022/09/06 01:09:12;;;;;;;10.27;9.38;;;;;;;;;;5008698;28;20044;-69
2022/09/06 01:11:55;;;;;;;10.52;9.63;;;;;;;;;;5009008;28;20099;-70
2022/09/06 01:14:33;;;;;;;10.70;9.60;;;;;;;;;;5012611;28;20030;-71
2022/09/06 01:17:25;;;;;;;9.93;9.02;;;;;;;;;;5007627;28;20044;-71
2022/09/06 01:20:09;;;;;;;10.05;9.15;;;;;;;;;;5008875;28;20034;-71
2022/09/06 01:22:38;;;;;;;10.27;9.38;;;;;;;;;;5009478;28;20552;-72
2022/09/06 01:25:34;;;;;;;10.25;9.35;;;;;;;;;;5008856;28;20046;-71
2022/09/06 01:28:33;;;;;;;10.15;9.15;;;;;;;;;;5008268;28;20117;-71
2022/09/06 01:31:34;;;;;;;10.25;9.18;;;;;;;;;;5004203;28;20038;-72
2022/09/06 01:34:06;;;;;;;10.27;9.48;;;;;;;;;;4995383;28;20046;-71
2022/09/06 01:36:38;;;;;;;10.48;9.20;;;;;;;;;;5008336;28;20033;-70
2022/09/06 01:39:03;;;;;;;10.63;9.63;;;;;;;;;;5007600;28;20041;-70
2022/09/06 01:41:29;;;;;;;9.63;8.73;;;;;;;;;;5009969;28;20034;-71
2022/09/06 01:43:56;;;;;;;9.52;8.63;;;;;;;;;;5006938;28;20064;-70
2022/09/06 01:46:34;;;;;;;9.65;8.95;;;;;;;;;;5021653;28;20100;-71
2022/09/06 01:49:28;;;;;;;10.67;9.63;;;;;;;;;;5007788;28;20030;-71
2022/09/06 01:52:03;;;;;;;10.68;9.57;;;;;;;;;;5005522;28;20026;-71
2022/09/06 01:55:12;;;;;;;13.27;10.13;;;;;;;;;;5008446;28;20083;-71
2022/09/06 01:58:04;;;;;;;11.45;9.90;;;;;;;;;;5008069;28;20401;-73
2022/09/06 02:00:31;;;;;;;12.57;10.63;;;;;;;;;;5005154;28;20037;-71
2022/09/06 02:03:12;;;;;;;11.77;10.77;;;;;;;;;;5005161;28;20030;-70
2022/09/06 02:05:54;;;;;;;11.82;10.50;;;;;;;;;;5010651;28;20153;-70
2022/09/06 02:08:40;;;;;;;12.13;10.38;;;;;;;;;;5001948;28;20038;-69
2022/09/06 02:11:08;;;;;;;17.48;10.57;;;;;;;;;;5007731;28;20046;-71
2022/09/06 02:13:41;;;;;;;12.43;11.27;;;;;;;;;;5008764;28;20556;-70
2022/09/06 02:16:09;;;;;;;12.32;11.20;;;;;;;;;;5011037;28;20034;-71
2022/09/06 02:18:39;;;;;;;11.23;10.20;;;;;;;;;;5008465;28;20041;-69
2022/09/06 02:21:07;;;;;;;11.80;10.23;;;;;;;;;;5009609;28;20049;-70
2022/09/06 02:23:38;;;;;;;12.68;10.57;;;;;;;;;;5009243;28;20038;-71
2022/09/06 02:26:12;;;;;;;11.35;10.25;;;;;;;;;;5010630;28;20037;-70
2022/09/06 02:28:38;;;;;;;14.05;10.73;;;;;;;;;;5004267;28;20037;-71
2022/09/06 02:31:13;;;;;;;14.32;11.07;;;;;;;;;;5003270;28;20046;-71
2022/09/06 02:33:42;;;;;;;14.82;11.18;;;;;;;;;;5009299;28;20030;-71
2022/09/06 02:36:08;;;;;;;19.48;12.40;;;;;;;;;;5009847;28;20069;-70
2022/09/06 02:38:37;;;;;;;13.43;10.63;;;;;;;;;;5006982;28;20478;-70
2022/09/06 02:41:04;;;;;;;11.38;10.30;;;;;;;;;;5010546;28;20037;-71
2022/09/06 02:43:30;;;;;;;10.90;10.02;;;;;;;;;;5011259;28;20117;-71
2022/09/06 02:45:55;;;;;;;11.27;10.05;;;;;;;;;;5008114;28;20040;-71
2022/09/06 02:48:21;;;;;;;11.07;10.07;;;;;;;;;;5004238;28;20040;-71
2022/09/06 02:50:47;;;;;;;13.82;10.02;;;;;;;;;;5008193;28;20053;-71
2022/09/06 02:53:14;;;;;;;10.70;9.80;;;;;;;;;;5010521;28;20038;-71
2022/09/06 02:55:40;;;;;;;11.38;10.02;;;;;;;;;;5008906;28;20422;-71
2022/09/06 02:58:09;;;;;;;11.77;10.68;;;;;;;;;;5006664;28;20041;-71
2022/09/06 03:00:34;;;;;;;10.27;9.27;;;;;;;;;;5008139;28;20029;-70
2022/09/06 03:03:00;;;;;;;10.75;9.65;;;;;;;;;;5008038;28;20116;-71
2022/09/06 03:05:27;;;;;;;10.90;10.00;;;;;;;;;;5008819;28;20034;-70
2022/09/06 03:07:53;;;;;;;9.93;9.13;;;;;;;;;;5003530;28;20038;-71
2022/09/06 03:10:21;;;;;;;10.68;9.68;;;;;;;;;;5008287;28;20128;-71
2022/09/06 03:12:47;;;;;;;10.70;9.80;;;;;;;;;;5003233;28;20049;-71
2022/09/06 03:15:14;;;;;;;10.40;9.07;;;;;;;;;;5006428;28;20030;-71
2022/09/06 03:17:41;;;;;;;11.50;10.00;;;;;;;;;;5006388;28;20045;-72
2022/09/06 03:20:08;;;;;;;10.95;9.95;;;;;;;;;;5004400;28;20077;-72
2022/09/06 03:22:35;;;;;;;12.68;10.70;;;;;;;;;;5008169;28;20453;-72
2022/09/06 03:25:01;;;;;;;13.48;11.52;;;;;;;;;;5007303;28;20095;-72
2022/09/06 03:27:27;;;;;;;12.52;11.23;;;;;;;;;;5007010;28;20030;-71
2022/09/06 03:29:52;;;;;;;12.82;11.50;;;;;;;;;;5001888;28;20034;-72
2022/09/06 03:32:18;;;;;;;12.63;11.35;;;;;;;;;;5004891;28;20691;-72
2022/09/06 03:34:43;;;;;;;13.10;11.77;;;;;;;;;;5008021;28;20068;-72
2022/09/06 03:37:09;;;;;;;12.43;11.20;;;;;;;;;;5005838;28;20088;-72
2022/09/06 03:39:35;;;;;;;13.68;11.65;;;;;;;;;;5004693;28;20064;-72
2022/09/06 03:42:00;;;;;;;15.02;11.38;;;;;;;;;;5005437;28;20072;-72
2022/09/06 03:44:26;;;;;;;12.20;11.15;;;;;;;;;;5007269;28;20033;-72
2022/09/06 03:46:51;;;;;;;12.05;10.95;;;;;;;;;;5005180;28;20046;-72
2022/09/06 03:49:17;;;;;;;13.18;11.88;;;;;;;;;;5005440;28;20332;-71
2022/09/06 03:51:43;;;;;;;13.38;11.98;;;;;;;;;;5008991;28;20038;-71
2022/09/06 03:54:09;;;;;;;12.68;11.43;;;;;;;;;;5008251;28;20037;-71
2022/09/06 03:56:34;;;;;;;12.23;10.77;;;;;;;;;;5006340;28;20034;-71
2022/09/06 03:59:00;;;;;;;11.10;10.20;;;;;;;;;;5002075;28;20050;-71
2022/09/06 04:01:26;;;;;;;12.18;10.98;;;;;;;;;;5008517;28;20385;-71
2022/09/06 04:03:52;;;;;;;13.15;11.35;;;;;;;;;;5007000;28;20061;-71
2022/09/06 04:06:18;;;;;;;13.02;11.15;;;;;;;;;;5006378;28;20359;-71
2022/09/06 04:08:43;;;;;;;12.27;10.80;;;;;;;;;;5000786;28;20175;-71
2022/09/06 04:11:09;;;;;;;12.65;11.45;;;;;;;;;;5007036;28;20436;-71
2022/09/06 04:13:35;;;;;;;12.75;11.65;;;;;;;;;;5007162;28;20503;-71
2022/09/06 04:16:02;;;;;;;14.57;10.88;;;;;;;;;;5004962;28;20112;-71
2022/09/06 04:18:28;;;;;;;12.43;11.13;;;;;;;;;;4998172;28;20409;-71
2022/09/06 04:20:57;;;;;;;13.15;11.77;;;;;;;;;;5007875;28;20030;-71
2022/09/06 04:23:24;;;;;;;12.95;11.65;;;;;;;;;;5006315;28;20448;-71
2022/09/06 04:25:55;;;;;;;12.90;11.25;;;;;;;;;;5003658;28;20633;-71
2022/09/06 04:28:21;;;;;;;13.23;11.82;;;;;;;;;;5022106;28;20034;-71
2022/09/06 04:30:57;;;;;;;13.05;11.85;;;;;;;;;;5006822;28;20490;-71
2022/09/06 04:33:26;;;;;;;14.73;12.30;;;;;;;;;;5009956;28;20130;-71
2022/09/06 04:35:55;;;;;;;12.75;11.60;;;;;;;;;;5004384;28;20045;-71
2022/09/06 04:38:21;;;;;;;14.45;11.60;;;;;;;;;;5008924;28;20452;-71
2022/09/06 04:40:47;;;;;;;14.15;11.80;;;;;;;;;;5010774;28;20512;-72
2022/09/06 04:43:13;;;;;;;14.52;12.77;;;;;;;;;;5008802;28;20034;-72
2022/09/06 04:45:38;;;;;;;13.05;11.82;;;;;;;;;;5008507;28;20038;-71
2022/09/06 04:48:04;;;;;;;14.48;13.00;;;;;;;;;;5009797;28;20030;-71
2022/09/06 04:50:30;;;;;;;12.77;11.65;;;;;;;;;;5011730;28;20068;-71
2022/09/06 04:53:03;;;;;;;13.30;12.02;;;;;;;;;;5007131;28;20038;-72
2022/09/06 04:55:30;;;;;;;13.35;11.95;;;;;;;;;;5010176;28;20041;-71
2022/09/06 04:58:00;;;;;;;13.00;11.85;;;;;;;;;;5010241;28;20452;-72
2022/09/06 05:00:26;;;;;;;13.93;12.52;;;;;;;;;;5008250;28;20485;-72
2022/09/06 05:02:52;;;;;;;14.68;13.15;;;;;;;;;;5004506;28;20097;-72
2022/09/06 05:05:18;;;;;;;14.20;12.82;;;;;;;;;;5009367;28;20037;-72
2022/09/06 05:07:43;;;;;;;17.67;14.45;;;;;;;;;;5009641;28;20037;-72
2022/09/06 05:10:09;;;;;;;18.40;14.55;;;;;;;;;;5009147;28;20120;-73
2022/09/06 05:12:34;;;;;;;15.68;14.10;;;;;;;;;;5008274;28;20034;-72
2022/09/06 05:15:00;;;;;;;19.35;13.82;;;;;;;;;;5008895;28;20038;-72
2022/09/06 05:17:26;;;;;;;16.73;14.82;;;;;;;;;;5006223;28;20030;-71
2022/09/06 05:19:51;;;;;;;14.60;12.80;;;;;;;;;;5010530;28;20034;-72
2022/09/06 05:22:17;;;;;;;13.32;12.07;;;;;;;;;;5011063;28;20494;-72
2022/09/06 05:24:43;;;;;;;13.48;12.30;;;;;;;;;;5004611;28;20065;-72
2022/09/06 05:27:11;;;;;;;14.02;12.30;;;;;;;;;;5008382;28;20072;-72
2022/09/06 05:29:37;;;;;;;13.68;12.38;;;;;;;;;;5011656;28;20539;-72
2022/09/06 05:32:03;;;;;;;15.30;12.65;;;;;;;;;;5011335;28;20030;-72
2022/09/06 05:34:29;;;;;;;13.90;12.50;;;;;;;;;;5009872;28;20390;-72
2022/09/06 05:36:54;;;;;;;13.75;12.38;;;;;;;;;;5023660;28;20606;-72
2022/09/06 05:39:20;;;;;;;13.48;11.40;;;;;;;;;;5010548;28;20045;-72
2022/09/06 05:41:46;;;;;;;13.63;12.30;;;;;;;;;;5008352;28;20038;-72
2022/09/06 05:44:13;;;;;;;12.73;11.63;;;;;;;;;;5005661;28;20030;-71
2022/09/06 05:46:45;;;;;;;11.77;10.70;;;;;;;;;;5012206;28;20504;-72
2022/09/06 05:49:12;;;;;;;11.95;10.85;;;;;;;;;;5007432;28;20038;-72
2022/09/06 05:51:38;;;;;;;12.55;11.00;;;;;;;;;;5008907;28;20500;-73
2022/09/06 05:54:04;;;;;;;13.32;11.82;;;;;;;;;;5009466;28;20409;-74
2022/09/06 05:56:30;;;;;;;13.13;11.93;;;;;;;;;;5010218;28;20033;-73
2022/09/06 05:58:56;;;;;;;13.43;11.90;;;;;;;;;;5009335;28;20038;-73
2022/09/06 06:01:27;;;;;;;12.98;11.88;;;;;;;;;;5005584;28;20049;-72
2022/09/06 06:04:01;;;;;;;12.43;11.32;;;;;;;;;;5013099;28;20093;-73
2022/09/06 06:06:30;;;;;;;12.30;11.13;;;;;;;;;;5009758;28;20064;-72
2022/09/06 06:08:56;;;;;;;13.65;11.40;;;;;;;;;;5007002;28;20461;-72
2022/09/06 06:11:23;;;;;;;12.93;11.43;;;;;;;;;;5009346;28;20120;-72
2022/09/06 06:13:49;;;;;;;12.38;10.95;;;;;;;;;;5010467;28;20046;-74
2022/09/06 06:16:18;;;;;;;11.13;10.25;;;;;;;;;;5007709;28;20429;-74
2022/09/06 06:18:44;;;;;;;12.07;10.98;;;;;;;;;;5010144;28;20036;-72
2022/09/06 06:21:13;;;;;;;11.10;10.25;;;;;;;;;;5012958;28;20037;-72
2022/09/06 06:23:39;;;;;;;12.50;11.48;;;;;;;;;;5004241;28;20042;-73
2022/09/06 06:26:06;;;;;;;12.75;11.50;;;;;;;;;;5010228;28;20033;-72
2022/09/06 06:28:32;;;;;;;12.55;11.55;;;;;;;;;;5011892;28;20397;-73
2022/09/06 06:30:58;;;;;;;12.50;11.20;;;;;;;;;;5008738;28;20495;-72
2022/09/06 06:33:24;;;;;;;15.45;12.00;;;;;;;;;;5006245;28;20044;-73
2022/09/06 06:36:00;;;;;;;12.30;11.30;;;;;;;;;;5010300;28;20081;-72
2022/09/06 06:38:31;;;;;;;12.43;11.40;;;;;;;;;;5010805;28;20069;-73
2022/09/06 06:40:57;;;;;;;12.45;11.20;;;;;;;;;;5007309;28;20064;-73
2022/09/06 06:43:22;;;;;;;12.40;11.30;;;;;;;;;;5009741;28;20037;-72
2022/09/06 06:45:49;;;;;;;11.30;10.30;;;;;;;;;;5009776;28;20044;-74
2022/09/06 06:48:15;;;;;;;11.57;10.60;;;;;;;;;;5007717;28;20029;-72
2022/09/06 06:50:41;;;;;;;11.88;10.95;;;;;;;;;;5007623;28;20033;-72
2022/09/06 06:53:06;;;;;;;12.43;11.25;;;;;;;;;;5008935;28;20560;-73
2022/09/06 06:55:32;;;;;;;13.52;11.70;;;;;;;;;;5011734;28;20481;-71
2022/09/06 06:58:01;;;;;;;13.30;11.80;;;;;;;;;;5005749;28;20213;-72
2022/09/06 07:00:27;;;;;;;15.50;11.75;;;;;;;;;;5006571;28;20509;-71
2022/09/06 07:02:54;;;;;;;13.13;11.93;;;;;;;;;;5009966;28;20071;-71
2022/09/06 07:05:21;;;;;;;13.82;11.85;;;;;;;;;;5008652;28;20103;-71
2022/09/06 07:07:46;;;;;;;12.55;11.50;;;;;;;;;;5006271;28;20377;-71
2022/09/06 07:10:12;;;;;;;12.43;11.23;;;;;;;;;;5008022;28;20028;-72
2022/09/06 07:12:38;;;;;;;12.52;11.30;;;;;;;;;;5008637;28;20041;-72
2022/09/06 07:15:04;;;;;;;16.10;11.55;;;;;;;;;;5006903;28;20124;-72
2022/09/06 07:17:29;;;;;;;12.00;10.98;;;;;;;;;;5010105;28;20160;-71
2022/09/06 07:19:55;;;;;;;12.43;11.32;;;;;;;;;;5010711;28;20125;-71
2022/09/06 07:22:20;;;;;;;12.15;10.75;;;;;;;;;;5009554;28;20388;-72
2022/09/06 07:24:46;;;;;;;13.93;10.63;;;;;;;;;;5006064;28;20520;-71
2022/09/06 07:27:11;;;;;;;11.13;10.13;;;;;;;;;;5007611;28;20026;-70
2022/09/06 07:29:37;;;;;;;11.27;10.32;;;;;;;;;;5008382;28;20022;-72
2022/09/06 07:32:03;;;;;;;32.17;15.50;;;;;;;;;;5005616;28;20029;-72
2022/09/06 07:34:28;;;;;;;27.00;14.90;;;;;;;;;;5005986;28;20053;-72
2022/09/06 07:36:55;;;;;;;12.15;10.98;;;;;;;;;;5011955;28;20033;-72
2022/09/06 07:39:21;;;;;;;12.35;11.00;;;;;;;;;;5008661;28;20201;-71
2022/09/06 07:41:47;;;;;;;11.98;10.88;;;;;;;;;;5005299;28;20116;-71
2022/09/06 07:44:13;;;;;;;11.63;10.68;;;;;;;;;;5007494;28;20076;-71
2022/09/06 07:46:38;;;;;;;11.57;10.48;;;;;;;;;;5008444;28;20037;-71
2022/09/06 07:49:05;;;;;;;11.70;10.70;;;;;;;;;;5007108;28;20133;-72
2022/09/06 07:51:31;;;;;;;11.45;10.35;;;;;;;;;;5007458;28;20037;-72
2022/09/06 07:53:56;;;;;;;12.90;10.40;;;;;;;;;;5007709;28;20049;-71
2022/09/06 07:56:23;;;;;;;11.13;10.15;;;;;;;;;;5007884;28;20026;-72
2022/09/06 07:58:50;;;;;;;10.45;9.65;;;;;;;;;;5005539;28;20067;-71
2022/09/06 08:01:29;;;;;;;10.57;9.68;;;;;;;;;;5006598;28;20037;-71
2022/09/06 08:03:57;;;;;;;11.02;9.70;;;;;;;;;;5008349;28;20174;-70
2022/09/06 08:06:23;;;;;;;11.30;9.85;;;;;;;;;;5007237;28;20125;-71
2022/09/06 08:08:49;;;;;;;11.02;10.10;;;;;;;;;;5006111;28;20053;-71
2022/09/06 08:11:15;;;;;;;11.35;10.32;;;;;;;;;;5009076;28;20045;-71
2022/09/06 08:13:41;;;;;;;11.27;10.27;;;;;;;;;;5011769;28;20021;-71
2022/09/06 08:16:08;;;;;;;10.57;9.50;;;;;;;;;;5011236;28;20037;-71
2022/09/06 08:18:35;;;;;;;10.80;9.90;;;;;;;;;;5015702;28;20038;-70
2022/09/06 08:21:12;;;;;;;12.35;10.00;;;;;;;;;;5011582;28;20109;-72
2022/09/06 08:23:41;;;;;;;10.90;9.88;;;;;;;;;;5011719;28;20116;-71
2022/09/06 08:26:07;;;;;;;10.23;9.40;;;;;;;;;;5009577;28;20040;-72
2022/09/06 08:28:33;;;;;;;11.00;10.00;;;;;;;;;;5012941;28;20040;-71
2022/09/06 08:31:10;;;;;;;10.65;9.80;;;;;;;;;;5011817;28;20037;-71
2022/09/06 08:33:36;;;;;;;10.48;9.35;;;;;;;;;;5013132;28;20044;-71
2022/09/06 08:36:02;;;;;;;11.13;8.68;;;;;;;;;;5007616;28;20041;-71
2022/09/06 08:38:28;;;;;;;10.35;9.25;;;;;;;;;;5010698;28;20038;-71
2022/09/06 08:41:06;;;;;;;10.55;8.60;;;;;;;;;;5012403;28;20033;-71
2022/09/06 08:43:33;;;;;;;9.60;8.70;;;;;;;;;;5005029;28;20069;-70
2022/09/06 08:45:59;;;;;;;9.68;8.88;;;;;;;;;;5012202;28;20077;-72
2022/09/06 08:48:30;;;;;;;9.95;9.05;;;;;;;;;;5011477;28;20069;-71
2022/09/06 08:51:14;;;;;;;10.57;9.50;;;;;;;;;;5009943;28;20479;-72
2022/09/06 08:53:45;;;;;;;9.45;8.75;;;;;;;;;;5008205;28;20041;-71
2022/09/06 08:56:16;;;;;;;9.35;8.40;;;;;;;;;;5012544;28;20069;-70
2022/09/06 08:59:01;;;;;;;9.30;8.30;;;;;;;;;;5009141;28;20049;-71
2022/09/06 09:01:36;;;;;;;8.85;8.15;;;;;;;;;;5024375;28;20122;-71
2022/09/06 09:04:04;;;;;;;10.32;8.35;;;;;;;;;;5007637;28;20117;-71
2022/09/06 09:06:31;;;;;;;8.95;8.10;;;;;;;;;;5006566;28;20073;-72
2022/09/06 09:09:06;;;;;;;9.38;8.48;;;;;;;;;;5010586;28;20084;-72
2022/09/06 09:11:34;;;;;;;9.50;8.00;;;;;;;;;;5010087;28;20118;-71
2022/09/06 09:14:28;;;;;;;10.38;8.30;;;;;;;;;;5007402;28;20125;-72
2022/09/06 09:17:02;;;;;;;11.02;8.77;;;;;;;;;;5007402;28;20084;-72
2022/09/06 09:19:31;;;;;;;8.65;7.75;;;;;;;;;;5008835;28;20034;-71
2022/09/06 09:21:56;;;;;;;8.10;7.50;;;;;;;;;;5010944;28;20417;-71
2022/09/06 09:24:23;;;;;;;8.23;7.60;;;;;;;;;;5008460;28;20250;-71
2022/09/06 09:27:02;;;;;;;9.55;8.40;;;;;;;;;;5010143;28;20104;-72
2022/09/06 09:29:28;;;;;;;9.38;8.40;;;;;;;;;;5010144;28;20580;-71
2022/09/06 09:31:54;;;;;;;10.55;8.98;;;;;;;;;;5010678;28;20199;-72
2022/09/06 09:34:35;;;;;;;9.60;8.63;;;;;;;;;;5008099;28;20042;-71
2022/09/06 09:37:23;;;;;;;10.63;8.32;;;;;;;;;;5007576;28;20033;-71
2022/09/06 09:39:53;;;;;;;9.13;7.35;;;;;;;;;;5010924;28;20575;-72
2022/09/06 09:42:35;;;;;;;8.50;7.70;;;;;;;;;;5011168;28;20129;-71
2022/09/06 09:45:06;;;;;;;8.90;8.05;;;;;;;;;;5010462;28;20026;-71
2022/09/06 09:47:32;;;;;;;10.50;7.82;;;;;;;;;;5009794;28;20120;-71
2022/09/06 09:49:58;;;;;;;10.50;8.18;;;;;;;;;;5006996;28;20366;-71
2022/09/06 09:52:26;;;;;;;9.85;8.55;;;;;;;;;;5007831;28;20029;-72
2022/09/06 09:54:57;;;;;;;13.68;8.18;;;;;;;;;;5011914;28;20079;-71
2022/09/06 09:57:23;;;;;;;9.32;8.32;;;;;;;;;;5011040;28;20072;-72
2022/09/06 09:59:55;;;;;;;10.30;7.88;;;;;;;;;;5007572;28;20346;-72
2022/09/06 10:02:32;;;;;;;10.48;8.32;;;;;;;;;;5009684;28;20042;-69
2022/09/06 10:05:14;;;;;;;10.15;8.73;;;;;;;;;;5008545;28;20092;-69
2022/09/06 10:07:54;;;;;;;10.57;8.00;;;;;;;;;;5008583;28;20519;-70
2022/09/06 10:10:23;;;;;;;8.85;7.97;;;;;;;;;;5009785;28;20059;-69
2022/09/06 10:13:04;;;;;;;;;;;;;;;;;;5011044;28;20045;-70
2022/09/06 10:15:38;;;;;;;9.63;7.40;;;;;;;;;;5004955;28;19924;-69
2022/09/06 10:18:04;;;;;;;10.68;7.45;;;;;;;;;;5009046;28;20053;-69
2022/09/06 10:20:33;;;;;;;8.98;7.22;;;;;;;;;;5007992;28;20244;-69
2022/09/06 10:23:11;;;;;;;10.93;7.60;;;;;;;;;;5007843;28;20169;-70
2022/09/06 10:25:38;;;;;;;11.43;7.33;;;;;;;;;;5009995;28;20049;-72
2022/09/06 10:28:21;;;;;;;9.32;7.53;;;;;;;;;;5011654;28;20285;-73
2022/09/06 10:31:13;;;;;;;11.38;7.88;;;;;;;;;;5008881;28;20066;-71
2022/09/06 10:34:15;;;;;;;13.80;7.90;;;;;;;;;;4966008;28;20081;-72
2022/09/06 10:36:54;;;;;;;8.45;7.60;;;;;;;;;;5006484;28;20044;-71
2022/09/06 10:39:32;;;;;;;11.27;7.65;;;;;;;;;;5010702;28;20038;-71
2022/09/06 10:42:03;;;;;;;16.52;7.43;;;;;;;;;;5010444;28;20160;-72
2022/09/06 10:44:55;;;;;;;10.82;7.30;;;;;;;;;;5003819;28;20038;-73
2022/09/06 10:47:28;;;;;;;9.15;7.90;;;;;;;;;;5007012;28;20037;-72
2022/09/06 10:49:57;;;;;;;11.50;8.18;;;;;;;;;;5009114;28;20046;-72
2022/09/06 10:52:28;;;;;;;15.35;8.40;;;;;;;;;;5007728;28;20041;-74
2022/09/06 10:55:01;;;;;;;13.48;8.15;;;;;;;;;;5009493;28;20124;-72
2022/09/06 10:57:36;;;;;;;10.70;8.02;;;;;;;;;;5010879;28;20370;-73
2022/09/06 11:00:11;;;;;;;12.25;8.23;;;;;;;;;;5003695;28;20042;-72
2022/09/06 11:03:02;;;;;;;9.25;8.35;;;;;;;;;;5007311;28;20038;-68
2022/09/06 11:05:36;;;;;;;13.38;8.32;;;;;;;;;;5007470;28;20285;-71
2022/09/06 11:08:10;;;;;;;12.07;8.13;;;;;;;;;;5003551;28;20252;-71
2022/09/06 11:10:39;;;;;;;14.65;8.57;;;;;;;;;;5006808;28;20037;-70
2022/09/06 11:13:25;;;;;;;12.23;8.75;;;;;;;;;;5007428;28;20084;-70
2022/09/06 11:16:28;;;;;;;15.32;8.65;;;;;;;;;;5002563;28;20108;-70
2022/09/06 11:19:02;;;;;;;12.43;8.32;;;;;;;;;;5006861;28;20614;-69
2022/09/06 11:22:01;;;;;;;11.35;8.25;;;;;;;;;;5006052;28;20029;-70
2022/09/06 11:24:35;;;;;;;12.60;8.00;;;;;;;;;;5002670;28;20060;-70
2022/09/06 11:27:12;;;;;;;13.38;9.73;;;;;;;;;;5007345;28;20041;-73
2022/09/06 11:29:41;;;;;;;11.82;8.45;;;;;;;;;;5005724;28;20068;-74
2022/09/06 11:32:34;;;;;;;8.30;7.38;;;;;;;;;;5004249;28;20088;-73
2022/09/06 11:35:06;;;;;;;9.65;7.68;;;;;;;;;;5013362;28;20032;-70
2022/09/06 11:37:35;;;;;;;13.60;7.38;;;;;;;;;;5010595;28;20026;-71
2022/09/06 11:40:11;;;;;;;13.27;8.20;;;;;;;;;;5003563;28;20042;-71
2022/09/06 11:43:00;;;;;;;11.68;7.50;;;;;;;;;;5005778;28;20030;-70
2022/09/06 11:45:46;;;;;;;10.35;8.18;;;;;;;;;;5006848;28;20038;-72
2022/09/06 11:48:25;;;;;;;12.07;7.82;;;;;;;;;;5008063;28;20025;-73
2022/09/06 11:50:58;;;;;;;12.38;8.18;;;;;;;;;;5002576;28;20423;-71
2022/09/06 11:53:29;;;;;;;8.57;7.75;;;;;;;;;;5005780;28;20393;-73
2022/09/06 11:55:58;;;;;;;10.00;8.20;;;;;;;;;;5007922;28;20033;-73
2022/09/06 11:58:39;;;;;;;16.90;8.00;;;;;;;;;;5002670;28;20041;-71
2022/09/06 12:01:10;;;;;;;14.18;7.60;;;;;;;;;;5005247;28;20480;-73
2022/09/06 12:03:51;;;;;;;9.95;7.93;;;;;;;;;;5005048;28;20069;-73
2022/09/06 12:06:25;;;;;;;13.30;8.07;;;;;;;;;;5005552;28;20030;-72
2022/09/06 12:08:52;;;;;;;15.07;8.13;;;;;;;;;;5002200;28;20103;-70
2022/09/06 12:11:44;;;;;;;13.93;8.02;;;;;;;;;;5005663;28;20048;-70
2022/09/06 12:14:38;;;;;;;14.68;8.10;;;;;;;;;;5003143;28;20034;-69
2022/09/06 12:17:05;;;;;;;10.77;8.15;;;;;;;;;;4999419;28;20033;-69
2022/09/06 12:19:52;;;;;;;9.13;7.80;;;;;;;;;;5007907;28;20025;-70
2022/09/06 12:22:36;;;;;;;10.02;8.40;;;;;;;;;;5005527;28;20084;-69
2022/09/06 12:25:32;;;;;;;18.73;7.80;;;;;;;;;;5003633;28;20314;-70
2022/09/06 12:28:08;;;;;;;15.13;8.05;;;;;;;;;;5005204;28;20034;-70
2022/09/06 12:30:44;;;;;;;11.50;7.93;;;;;;;;;;5004181;28;20065;-70
2022/09/06 12:33:15;;;;;;;10.38;7.95;;;;;;;;;;5003430;28;20037;-73
2022/09/06 12:35:41;;;;;;;11.15;8.00;;;;;;;;;;5002515;28;20038;-73
2022/09/06 12:38:12;;;;;;;8.82;7.47;;;;;;;;;;5005384;28;20033;-71
2022/09/06 12:40:44;;;;;;;12.38;7.78;;;;;;;;;;5008545;28;20041;-73
2022/09/06 12:43:13;;;;;;;13.27;8.05;;;;;;;;;;5005797;28;20037;-72
2022/09/06 12:45:44;;;;;;;12.32;8.30;;;;;;;;;;5007404;28;20637;-72
2022/09/06 12:48:12;;;;;;;11.85;8.30;;;;;;;;;;5006035;28;20045;-73
2022/09/06 12:50:38;;;;;;;11.05;8.32;;;;;;;;;;5001183;28;20034;-71
2022/09/06 12:53:21;;;;;;;11.75;8.13;;;;;;;;;;5002859;28;20034;-72
2022/09/06 12:55:47;;;;;;;12.35;8.10;;;;;;;;;;5006086;28;20573;-72
2022/09/06 12:58:13;;;;;;;10.80;7.60;;;;;;;;;;5007850;28;20109;-73
2022/09/06 13:00:41;;;;;;;17.75;7.80;;;;;;;;;;5008716;28;20029;-72
2022/09/06 13:03:27;;;;;;;9.10;7.93;;;;;;;;;;5007290;28;20045;-70
2022/09/06 13:05:55;;;;;;;9.00;7.18;;;;;;;;;;5009812;28;20076;-71
2022/09/06 13:08:46;;;;;;;9.45;7.63;;;;;;;;;;5011104;28;20061;-71
2022/09/06 13:11:15;;;;;;;11.52;7.50;;;;;;;;;;5004352;28;20054;-71
2022/09/06 13:13:50;;;;;;;10.68;7.32;;;;;;;;;;5007172;28;20038;-72
2022/09/06 13:16:21;;;;;;;11.88;7.40;;;;;;;;;;5010932;28;20036;-73
2022/09/06 13:18:46;;;;;;;14.65;7.47;;;;;;;;;;5008925;28;20038;-71
2022/09/06 13:21:24;;;;;;;12.15;7.03;;;;;;;;;;5006042;28;20473;-70
2022/09/06 13:23:49;;;;;;;17.67;7.35;;;;;;;;;;5009018;28;20064;-71
2022/09/06 13:26:32;;;;;;;15.35;7.13;;;;;;;;;;5007120;28;20068;-72
2022/09/06 13:29:11;;;;;;;9.05;7.25;;;;;;;;;;5008267;28;20033;-70
2022/09/06 13:31:37;;;;;;;15.23;6.50;;;;;;;;;;5005837;28;20046;-72
2022/09/06 13:34:02;;;;;;;9.90;6.85;;;;;;;;;;5008011;28;20559;-72
2022/09/06 13:36:31;;;;;;;10.90;7.10;;;;;;;;;;5009037;28;20084;-71
2022/09/06 13:38:58;;;;;;;10.85;7.43;;;;;;;;;;5008666;28;20038;-71
2022/09/06 13:41:24;;;;;;;12.27;7.00;;;;;;;;;;5008273;28;20026;-72
2022/09/06 13:44:03;;;;;;;14.50;7.03;;;;;;;;;;5009071;28;20426;-73
2022/09/06 13:46:31;;;;;;;7.72;6.93;;;;;;;;;;5007921;28;20034;-73
2022/09/06 13:48:57;;;;;;;13.70;7.78;;;;;;;;;;5004838;28;20030;-72
2022/09/06 13:51:23;;;;;;;8.77;7.78;;;;;;;;;;5005735;28;20112;-72
2022/09/06 13:53:49;;;;;;;13.65;8.50;;;;;;;;;;5007120;28;20041;-72
2022/09/06 13:56:15;;;;;;;12.85;7.82;;;;;;;;;;5009062;28;20042;-70
2022/09/06 13:58:42;;;;;;;12.30;8.30;;;;;;;;;;5006346;28;20683;-72
2022/09/06 14:01:09;;;;;;;12.50;7.57;;;;;;;;;;5005755;28;20689;-73
2022/09/06 14:03:36;;;;;;;11.18;8.05;;;;;;;;;;5004327;28;20103;-72
2022/09/06 14:06:02;;;;;;;7.65;6.90;;;;;;;;;;5008740;28;20068;-73
2022/09/06 14:08:28;;;;;;;8.50;7.07;;;;;;;;;;5006722;28;20062;-72
2022/09/06 14:10:55;;;;;;;12.70;7.60;;;;;;;;;;5011815;28;20096;-73
2022/09/06 14:13:21;;;;;;;13.20;6.97;;;;;;;;;;5007541;28;20374;-71
2022/09/06 14:15:47;;;;;;;14.55;8.18;;;;;;;;;;5011299;28;20068;-72
2022/09/06 14:18:14;;;;;;;11.98;7.68;;;;;;;;;;5026923;28;20469;-72
2022/09/06 14:20:40;;;;;;;12.98;7.90;;;;;;;;;;5010022;28;20048;-73
2022/09/06 14:23:06;;;;;;;14.80;8.02;;;;;;;;;;5008874;28;20124;-72
2022/09/06 14:25:36;;;;;;;12.30;7.88;;;;;;;;;;5012062;28;20049;-73
2022/09/06 14:28:05;;;;;;;14.43;7.63;;;;;;;;;;5003992;28;20421;-72
2022/09/06 14:30:31;;;;;;;;;;;;;;;;;;5007830;28;20065;-73
2022/09/06 14:32:56;;;;;;;10.23;8.10;;;;;;;;;;4998832;28;19917;-73
2022/09/06 14:35:22;;;;;;;14.30;8.50;;;;;;;;;;5006955;28;20124;-72
2022/09/06 14:37:48;;;;;;;13.02;8.43;;;;;;;;;;5008966;28;20073;-71
2022/09/06 14:40:14;;;;;;;12.93;9.07;;;;;;;;;;5009161;28;20034;-71
2022/09/06 14:42:40;;;;;;;9.38;8.13;;;;;;;;;;5007646;28;20034;-71
2022/09/06 14:45:06;;;;;;;10.80;7.57;;;;;;;;;;5007785;28;20037;-70
2022/09/06 14:47:32;;;;;;;10.00;7.72;;;;;;;;;;5007629;28;20485;-71